Time;durP1;ratioP1;P1;durP2;ratioP2;P2;SDS_P1;SDS_P2;PMS_P1;PMS_P2;Temp;Humidity;BMP_temperature;BMP_pressure;BME280_temperature;BME280_humidity;BME280_pressure;Samples;Min_cycle;Max_cycle;Signal;HPM_P1;HPM_P2
2022/01/03 00:00:22;;;;;;;0.30;0.30;;;;;;;;;;1784229;80;26756;-31
2022/01/03 00:02:49;;;;;;;0.40;0.40;;;;;;;;;;1784284;80;26464;-31
2022/01/03 00:05:17;;;;;;;0.30;0.30;;;;;;;;;;1782388;79;25734;-34
2022/01/03 00:07:46;;;;;;;0.30;0.30;;;;;;;;;;1779768;79;26911;-34
2022/01/03 00:10:15;;;;;;;0.30;0.30;;;;;;;;;;1782848;79;26314;-32
2022/01/03 00:12:43;;;;;;;0.40;0.40;;;;;;;;;;1781171;80;26812;-33
2022/01/03 00:15:13;;;;;;;0.30;0.30;;;;;;;;;;1786457;79;26263;-32
2022/01/03 00:17:41;;;;;;;0.30;0.30;;;;;;;;;;1786764;80;26346;-32
2022/01/03 00:20:09;;;;;;;0.40;0.40;;;;;;;;;;1782960;80;26274;-33
2022/01/03 00:22:44;;;;;;;0.30;0.30;;;;;;;;;;1784933;79;26754;-34
2022/01/03 00:25:15;;;;;;;0.90;0.30;;;;;;;;;;1781559;80;26317;-32
2022/01/03 00:27:46;;;;;;;0.30;0.30;;;;;;;;;;1784236;80;26370;-32
2022/01/03 00:30:15;;;;;;;0.72;0.45;;;;;;;;;;1783280;79;26770;-32
2022/01/03 00:32:43;;;;;;;0.40;0.40;;;;;;;;;;1784251;80;26278;-31
2022/01/03 00:35:12;;;;;;;0.40;0.40;;;;;;;;;;1782208;80;26278;-31
2022/01/03 00:37:42;;;;;;;0.37;0.37;;;;;;;;;;1771265;80;26332;-34
2022/01/03 00:40:10;;;;;;;0.35;0.35;;;;;;;;;;1762801;81;26342;-32
2022/01/03 00:42:39;;;;;;;0.47;0.47;;;;;;;;;;1765212;81;26353;-31
2022/01/03 00:45:06;;;;;;;0.40;0.40;;;;;;;;;;1768890;80;26354;-32
2022/01/03 00:47:34;;;;;;;0.37;0.37;;;;;;;;;;1769743;81;27060;-32
2022/01/03 00:50:03;;;;;;;0.42;0.30;;;;;;;;;;1763046;81;26299;-32
2022/01/03 00:52:30;;;;;;;0.40;0.40;;;;;;;;;;1762700;81;26288;-33
2022/01/03 00:54:57;;;;;;;0.28;0.28;;;;;;;;;;1759440;81;26302;-32
2022/01/03 00:57:26;;;;;;;0.30;0.30;;;;;;;;;;1767862;81;26829;-32
2022/01/03 00:59:58;;;;;;;0.28;0.28;;;;;;;;;;1749057;81;26865;-34
2022/01/03 01:02:27;;;;;;;0.65;0.40;;;;;;;;;;1763596;81;26292;-32
2022/01/03 01:04:55;;;;;;;0.30;0.30;;;;;;;;;;1763863;81;26640;-33
2022/01/03 01:07:24;;;;;;;0.30;0.30;;;;;;;;;;1768456;80;26830;-33
2022/01/03 01:09:52;;;;;;;0.75;0.60;;;;;;;;;;1762723;80;26783;-34
2022/01/03 01:12:19;;;;;;;0.30;0.30;;;;;;;;;;1771799;79;26365;-35
2022/01/03 01:14:48;;;;;;;0.53;0.53;;;;;;;;;;1767038;80;26408;-35
2022/01/03 01:17:15;;;;;;;0.40;0.40;;;;;;;;;;1754958;80;26730;-33
2022/01/03 01:19:43;;;;;;;0.50;0.50;;;;;;;;;;1758800;79;26232;-31
2022/01/03 01:22:10;;;;;;;0.30;0.30;;;;;;;;;;1753824;80;26314;-32
2022/01/03 01:24:48;;;;;;;0.60;0.30;;;;;;;;;;1751001;80;26291;-32
2022/01/03 01:29:52;;;;;;;0.30;0.30;;;;;;;;;;1771328;79;26391;-34
2022/01/03 01:32:20;;;;;;;0.30;0.30;;;;;;;;;;1756226;81;26300;-34
2022/01/03 01:34:49;;;;;;;0.28;0.28;;;;;;;;;;1755109;80;26575;-35
2022/01/03 01:37:17;;;;;;;0.30;0.30;;;;;;;;;;1761630;80;26792;-32
2022/01/03 01:39:46;;;;;;;0.28;0.28;;;;;;;;;;1761463;80;26786;-32
2022/01/03 01:42:15;;;;;;;0.40;0.40;;;;;;;;;;1747694;80;26384;-32
2022/01/03 01:44:44;;;;;;;0.30;0.30;;;;;;;;;;1751393;80;26365;-35
2022/01/03 01:47:12;;;;;;;0.30;0.30;;;;;;;;;;1766697;80;26339;-32
2022/01/03 01:49:40;;;;;;;0.30;0.30;;;;;;;;;;1745547;80;26679;-31
2022/01/03 01:52:09;;;;;;;0.28;0.28;;;;;;;;;;1744320;80;26778;-32
2022/01/03 01:54:37;;;;;;;0.30;0.30;;;;;;;;;;1748362;80;26735;-32
2022/01/03 01:57:09;;;;;;;0.30;0.30;;;;;;;;;;1764967;80;27339;-32
2022/01/03 01:59:44;;;;;;;0.37;0.37;;;;;;;;;;1745791;80;26235;-34
2022/01/03 02:02:13;;;;;;;0.30;0.30;;;;;;;;;;1752233;80;26306;-32
2022/01/03 02:04:48;;;;;;;0.30;0.30;;;;;;;;;;1752633;80;26282;-33
2022/01/03 02:07:29;;;;;;;0.30;0.30;;;;;;;;;;1763495;79;26254;-32
2022/01/03 02:10:12;;;;;;;0.30;0.30;;;;;;;;;;1742794;80;26788;-35
2022/01/03 02:12:41;;;;;;;0.50;0.50;;;;;;;;;;1749906;80;26227;-31
2022/01/03 02:15:11;;;;;;;0.33;0.33;;;;;;;;;;1765453;80;26777;-31
2022/01/03 02:17:39;;;;;;;0.30;0.30;;;;;;;;;;1745292;80;26298;-35
2022/01/03 02:20:23;;;;;;;0.20;0.20;;;;;;;;;;1755109;80;26367;-32
2022/01/03 02:22:51;;;;;;;0.33;0.33;;;;;;;;;;1765275;81;26818;-32
2022/01/03 02:25:19;;;;;;;0.40;0.40;;;;;;;;;;1758818;80;26283;-33
2022/01/03 02:27:48;;;;;;;0.37;0.37;;;;;;;;;;1745293;80;26297;-35
2022/01/03 02:30:17;;;;;;;0.30;0.30;;;;;;;;;;1766093;80;26756;-32
2022/01/03 02:32:44;;;;;;;0.30;0.30;;;;;;;;;;1759082;80;26727;-31
2022/01/03 02:35:11;;;;;;;0.30;0.30;;;;;;;;;;1750854;80;26353;-32
2022/01/03 02:37:39;;;;;;;0.30;0.30;;;;;;;;;;1759080;79;26375;-32
2022/01/03 02:40:10;;;;;;;0.30;0.30;;;;;;;;;;1785983;79;26251;-32
2022/01/03 02:42:37;;;;;;;0.40;0.40;;;;;;;;;;1762846;79;26266;-32
2022/01/03 02:45:06;;;;;;;0.30;0.30;;;;;;;;;;1782931;79;26695;-33
2022/01/03 02:47:34;;;;;;;0.30;0.30;;;;;;;;;;1781327;80;26310;-33
2022/01/03 02:50:01;;;;;;;0.30;0.30;;;;;;;;;;1776615;80;26662;-32
2022/01/03 02:52:28;;;;;;;0.20;0.20;;;;;;;;;;1772702;79;26344;-32
2022/01/03 02:54:56;;;;;;;0.30;0.30;;;;;;;;;;1767159;79;26286;-31
2022/01/03 02:57:24;;;;;;;0.40;0.40;;;;;;;;;;1777047;79;26302;-32
2022/01/03 02:59:55;;;;;;;0.40;0.40;;;;;;;;;;1762351;79;26308;-32
2022/01/03 03:02:24;;;;;;;0.40;0.40;;;;;;;;;;1776228;79;26363;-32
2022/01/03 03:04:55;;;;;;;0.37;0.37;;;;;;;;;;1762101;79;25659;-31
2022/01/03 03:07:23;;;;;;;0.33;0.33;;;;;;;;;;1768651;79;26267;-33
2022/01/03 03:09:50;;;;;;;0.30;0.30;;;;;;;;;;1780787;79;26216;-35
2022/01/03 03:12:19;;;;;;;0.20;0.20;;;;;;;;;;1758368;79;26297;-32
2022/01/03 03:14:47;;;;;;;0.30;0.30;;;;;;;;;;1780108;79;26821;-35
2022/01/03 03:17:17;;;;;;;0.20;0.20;;;;;;;;;;1762784;79;26384;-32
2022/01/03 03:19:50;;;;;;;0.30;0.30;;;;;;;;;;1769034;79;26356;-32
2022/01/03 03:22:18;;;;;;;0.40;0.40;;;;;;;;;;1777872;80;26275;-34
2022/01/03 03:24:45;;;;;;;0.30;0.30;;;;;;;;;;1782697;79;26251;-34
2022/01/03 03:27:12;;;;;;;0.35;0.35;;;;;;;;;;1766868;79;26278;-32
2022/01/03 03:29:44;;;;;;;0.37;0.37;;;;;;;;;;1787370;79;26345;-32
2022/01/03 03:32:11;;;;;;;0.30;0.30;;;;;;;;;;1761834;79;26355;-34
2022/01/03 03:34:39;;;;;;;0.33;0.33;;;;;;;;;;1759077;79;26811;-32
2022/01/03 03:37:06;;;;;;;0.40;0.40;;;;;;;;;;1765694;79;26882;-32
2022/01/03 03:39:34;;;;;;;0.30;0.30;;;;;;;;;;1770485;79;26310;-31
2022/01/03 03:42:02;;;;;;;0.20;0.20;;;;;;;;;;1751445;80;26736;-33
2022/01/03 03:44:29;;;;;;;0.37;0.30;;;;;;;;;;1753409;80;26290;-32
2022/01/03 03:46:56;;;;;;;0.20;0.20;;;;;;;;;;1753900;80;26282;-34
2022/01/03 03:49:23;;;;;;;0.30;0.30;;;;;;;;;;1753474;80;27319;-31
2022/01/03 03:51:51;;;;;;;0.30;0.30;;;;;;;;;;1751645;80;26356;-33
2022/01/03 03:54:18;;;;;;;0.25;0.25;;;;;;;;;;1765118;80;26287;-31
2022/01/03 03:56:46;;;;;;;0.20;0.20;;;;;;;;;;1749065;80;26239;-31
2022/01/03 03:59:13;;;;;;;0.42;0.30;;;;;;;;;;1742717;80;26380;-32
2022/01/03 04:01:41;;;;;;;0.30;0.30;;;;;;;;;;1764739;80;26477;-32
2022/01/03 04:04:08;;;;;;;0.30;0.30;;;;;;;;;;1761759;80;26367;-33
2022/01/03 04:06:35;;;;;;;0.40;0.40;;;;;;;;;;1741957;81;26364;-32
2022/01/03 04:09:03;;;;;;;0.10;0.10;;;;;;;;;;1744248;81;26390;-34
2022/01/03 04:11:30;;;;;;;0.20;0.20;;;;;;;;;;1766538;81;26276;-32
2022/01/03 04:13:58;;;;;;;0.20;0.20;;;;;;;;;;1768359;80;26581;-34
2022/01/03 04:16:25;;;;;;;0.23;0.23;;;;;;;;;;1770826;81;26325;-31
2022/01/03 04:18:53;;;;;;;0.37;0.37;;;;;;;;;;1770932;81;26251;-32
2022/01/03 04:21:21;;;;;;;0.25;0.25;;;;;;;;;;1767187;80;26370;-33
2022/01/03 04:23:48;;;;;;;0.37;0.30;;;;;;;;;;1759510;80;26239;-32
2022/01/03 04:26:15;;;;;;;0.30;0.30;;;;;;;;;;1765728;81;26358;-32
2022/01/03 04:28:42;;;;;;;0.40;0.40;;;;;;;;;;1771146;81;26288;-32
2022/01/03 04:31:10;;;;;;;0.40;0.40;;;;;;;;;;1770327;80;26389;-31
2022/01/03 04:33:37;;;;;;;0.30;0.30;;;;;;;;;;1763973;81;26397;-32
2022/01/03 04:36:06;;;;;;;0.30;0.30;;;;;;;;;;1742561;82;26313;-34
2022/01/03 04:38:33;;;;;;;0.30;0.30;;;;;;;;;;1755957;81;26335;-32
2022/01/03 04:41:01;;;;;;;0.37;0.37;;;;;;;;;;1770926;81;26261;-33
2022/01/03 04:43:28;;;;;;;0.20;0.20;;;;;;;;;;1782066;79;27153;-32
2022/01/03 04:45:56;;;;;;;0.40;0.40;;;;;;;;;;1795912;79;26747;-34
2022/01/03 04:48:24;;;;;;;0.60;0.35;;;;;;;;;;1770760;80;26815;-32
2022/01/03 04:50:52;;;;;;;0.30;0.30;;;;;;;;;;1769411;81;26330;-34
2022/01/03 04:53:21;;;;;;;0.30;0.30;;;;;;;;;;1759587;80;26744;-32
2022/01/03 04:55:48;;;;;;;0.40;0.40;;;;;;;;;;1763419;81;26291;-33
2022/01/03 04:58:15;;;;;;;0.40;0.40;;;;;;;;;;1769176;81;26292;-31
2022/01/03 05:00:42;;;;;;;0.40;0.40;;;;;;;;;;1769174;81;26843;-31
2022/01/03 05:03:10;;;;;;;0.40;0.40;;;;;;;;;;1769193;80;26780;-33
2022/01/03 05:05:37;;;;;;;0.30;0.30;;;;;;;;;;1770897;80;26339;-32
2022/01/03 05:08:05;;;;;;;0.80;0.30;;;;;;;;;;1770585;80;26877;-32
2022/01/03 05:10:33;;;;;;;0.40;0.40;;;;;;;;;;1750766;80;26298;-33
2022/01/03 05:13:01;;;;;;;0.28;0.28;;;;;;;;;;1743425;79;26814;-34
2022/01/03 05:15:28;;;;;;;0.40;0.40;;;;;;;;;;1742558;82;26283;-32
2022/01/03 05:17:56;;;;;;;0.30;0.30;;;;;;;;;;1742632;81;26297;-34
2022/01/03 05:20:23;;;;;;;0.40;0.40;;;;;;;;;;1742819;82;26848;-32
2022/01/03 05:22:50;;;;;;;0.40;0.40;;;;;;;;;;1758754;81;26854;-32
2022/01/03 05:25:17;;;;;;;0.40;0.40;;;;;;;;;;1762724;80;27341;-32
2022/01/03 05:27:44;;;;;;;0.33;0.33;;;;;;;;;;1769174;81;26348;-33
2022/01/03 05:30:12;;;;;;;0.42;0.42;;;;;;;;;;1768257;81;26221;-32
2022/01/03 05:32:40;;;;;;;0.40;0.40;;;;;;;;;;1742861;82;26346;-33
2022/01/03 05:35:08;;;;;;;0.40;0.40;;;;;;;;;;1766978;81;26650;-33
2022/01/03 05:37:35;;;;;;;0.40;0.40;;;;;;;;;;1770743;81;26700;-32
2022/01/03 05:40:03;;;;;;;1.10;0.33;;;;;;;;;;1784980;80;26718;-33
2022/01/03 05:42:30;;;;;;;0.42;0.42;;;;;;;;;;1787106;79;26365;-32
2022/01/03 05:44:57;;;;;;;0.50;0.50;;;;;;;;;;1787054;79;26310;-34
2022/01/03 05:47:25;;;;;;;0.37;0.37;;;;;;;;;;1768390;79;26297;-32
2022/01/03 05:49:53;;;;;;;0.50;0.50;;;;;;;;;;1758830;81;26805;-32
2022/01/03 05:52:21;;;;;;;0.50;0.40;;;;;;;;;;1775659;80;26303;-33
2022/01/03 05:54:48;;;;;;;0.60;0.60;;;;;;;;;;1777685;80;26277;-32
2022/01/03 05:57:16;;;;;;;0.35;0.35;;;;;;;;;;1787295;80;27241;-32
2022/01/03 05:59:43;;;;;;;0.47;0.47;;;;;;;;;;1768291;79;26303;-31
2022/01/03 06:02:10;;;;;;;0.50;0.40;;;;;;;;;;1759247;79;26262;-32
2022/01/03 06:04:54;;;;;;;0.40;0.40;;;;;;;;;;1768689;79;26380;-31
2022/01/03 06:07:08;;;;;;;0.50;0.50;;;;;;;;;;1764319;80;26373;-32
2022/01/03 06:09:36;;;;;;;0.50;0.50;;;;;;;;;;1763752;80;26358;-32
2022/01/03 06:12:04;;;;;;;0.50;0.50;;;;;;;;;;1762984;80;26702;-32
2022/01/03 06:14:32;;;;;;;0.50;0.50;;;;;;;;;;1758540;80;26574;-34
2022/01/03 06:17:00;;;;;;;0.55;0.55;;;;;;;;;;1762480;80;27005;-32
2022/01/03 06:19:28;;;;;;;0.60;0.60;;;;;;;;;;1766762;80;26222;-32
2022/01/03 06:21:56;;;;;;;0.50;0.50;;;;;;;;;;1767323;80;26775;-34
2022/01/03 06:24:24;;;;;;;0.53;0.53;;;;;;;;;;1763109;80;26290;-33
2022/01/03 06:26:52;;;;;;;0.57;0.55;;;;;;;;;;1780908;79;26762;-32
2022/01/03 06:29:19;;;;;;;0.53;0.53;;;;;;;;;;1781645;80;26306;-32
2022/01/03 06:31:47;;;;;;;0.50;0.50;;;;;;;;;;1761209;80;26598;-35
2022/01/03 06:34:16;;;;;;;0.50;0.50;;;;;;;;;;1767255;80;26633;-33
2022/01/03 06:36:44;;;;;;;5.28;0.75;;;;;;;;;;1767263;80;26835;-31
2022/01/03 06:39:12;;;;;;;2.27;0.95;;;;;;;;;;1759645;80;26396;-32
2022/01/03 06:41:41;;;;;;;0.72;0.60;;;;;;;;;;1742950;81;26303;-31
2022/01/03 06:44:08;;;;;;;0.50;0.50;;;;;;;;;;1742299;82;26663;-32
2022/01/03 06:46:36;;;;;;;3.22;0.60;;;;;;;;;;1767002;81;26268;-32
2022/01/03 06:49:06;;;;;;;3.25;0.70;;;;;;;;;;1770906;80;26731;-32
2022/01/03 06:51:37;;;;;;;3.58;0.80;;;;;;;;;;1770320;81;26611;-34
2022/01/03 06:54:05;;;;;;;1.95;0.60;;;;;;;;;;1769070;80;26366;-32
2022/01/03 06:56:33;;;;;;;3.50;0.60;;;;;;;;;;1769251;81;26285;-32
2022/01/03 06:59:00;;;;;;;2.77;0.70;;;;;;;;;;1769230;80;26273;-32
2022/01/03 07:01:28;;;;;;;2.33;0.60;;;;;;;;;;1769127;80;26273;-34
2022/01/03 07:03:55;;;;;;;3.35;0.62;;;;;;;;;;1761520;80;26599;-32
2022/01/03 07:06:22;;;;;;;3.62;0.60;;;;;;;;;;1767469;80;26636;-32
2022/01/03 07:08:50;;;;;;;3.02;0.70;;;;;;;;;;1761129;80;26243;-33
2022/01/03 07:11:17;;;;;;;1.57;0.60;;;;;;;;;;1767212;81;26353;-31
2022/01/03 07:13:48;;;;;;;2.02;0.72;;;;;;;;;;1759448;80;26411;-33
2022/01/03 07:19:00;;;;;;;2.05;0.57;;;;;;;;;;1742418;81;26607;-32
2022/01/03 07:21:31;;;;;;;0.55;0.50;;;;;;;;;;1748556;81;26641;-33
2022/01/03 07:23:59;;;;;;;1.17;0.70;;;;;;;;;;1766345;80;27319;-32
2022/01/03 07:26:27;;;;;;;0.93;0.70;;;;;;;;;;1769640;80;26283;-32
2022/01/03 07:28:55;;;;;;;1.20;0.45;;;;;;;;;;1770764;80;26291;-33
2022/01/03 07:31:22;;;;;;;1.05;0.70;;;;;;;;;;1769875;80;26684;-32
2022/01/03 07:33:49;;;;;;;1.32;0.60;;;;;;;;;;1760254;80;26306;-31
2022/01/03 07:36:17;;;;;;;2.15;0.80;;;;;;;;;;1765094;80;26362;-32
2022/01/03 07:38:46;;;;;;;0.72;0.47;;;;;;;;;;1760925;80;26863;-32
2022/01/03 07:41:15;;;;;;;1.75;0.75;;;;;;;;;;1784018;80;26334;-35
2022/01/03 07:43:43;;;;;;;1.65;0.57;;;;;;;;;;1787233;79;26380;-32
2022/01/03 07:46:11;;;;;;;1.57;0.68;;;;;;;;;;1775332;79;26801;-33
2022/01/03 07:48:38;;;;;;;0.93;0.60;;;;;;;;;;1772514;79;26263;-32
2022/01/03 07:51:05;;;;;;;1.00;0.80;;;;;;;;;;1785249;80;26267;-32
2022/01/03 07:53:33;;;;;;;0.82;0.60;;;;;;;;;;1785560;79;26311;-32
2022/01/03 07:56:00;;;;;;;0.65;0.57;;;;;;;;;;1785535;79;26271;-32
2022/01/03 07:58:27;;;;;;;2.33;0.62;;;;;;;;;;1786441;79;26329;-32
2022/01/03 08:00:55;;;;;;;2.87;0.88;;;;;;;;;;1787409;80;26365;-32
2022/01/03 08:03:22;;;;;;;1.27;0.45;;;;;;;;;;1783032;79;26305;-33
2022/01/03 08:05:50;;;;;;;0.50;0.50;;;;;;;;;;1758538;81;26290;-32
2022/01/03 08:08:18;;;;;;;0.72;0.60;;;;;;;;;;1767596;80;26283;-32
2022/01/03 08:10:46;;;;;;;4.95;0.60;;;;;;;;;;1784665;79;26284;-31
2022/01/03 08:13:14;;;;;;;1.15;0.60;;;;;;;;;;1780817;79;26378;-33
2022/01/03 08:15:42;;;;;;;1.72;0.42;;;;;;;;;;1780799;80;26271;-32
2022/01/03 08:18:09;;;;;;;1.27;0.72;;;;;;;;;;1781125;80;26283;-32
2022/01/03 08:20:36;;;;;;;0.88;0.60;;;;;;;;;;1782505;79;26574;-32
2022/01/03 08:23:04;;;;;;;1.37;0.50;;;;;;;;;;1770395;80;26344;-32
2022/01/03 08:25:36;;;;;;;0.70;0.70;;;;;;;;;;1772680;80;26266;-32
2022/01/03 08:28:01;;;;;;;0.53;0.53;;;;;;;;;;1745060;80;26796;-33
2022/01/03 08:30:29;;;;;;;0.78;0.60;;;;;;;;;;1764446;79;26290;-34
2022/01/03 08:32:56;;;;;;;1.17;0.60;;;;;;;;;;1775816;79;26283;-32
2022/01/03 08:35:24;;;;;;;0.50;0.50;;;;;;;;;;1769986;79;26273;-34
2022/01/03 08:37:52;;;;;;;0.40;0.40;;;;;;;;;;1771809;80;26577;-34
2022/01/03 08:40:19;;;;;;;1.00;0.60;;;;;;;;;;1760897;79;26357;-33
2022/01/03 08:42:47;;;;;;;0.50;0.50;;;;;;;;;;1758552;80;26726;-31
2022/01/03 08:45:14;;;;;;;0.68;0.68;;;;;;;;;;1763949;79;26340;-31
2022/01/03 08:47:41;;;;;;;1.92;0.42;;;;;;;;;;1766579;79;26375;-29
2022/01/03 08:50:10;;;;;;;0.50;0.50;;;;;;;;;;1765568;80;26292;-30
2022/01/03 08:52:37;;;;;;;0.50;0.50;;;;;;;;;;1763848;79;26734;-30
2022/01/03 08:55:05;;;;;;;0.65;0.50;;;;;;;;;;1770516;79;26277;-32
2022/01/03 08:57:32;;;;;;;1.12;0.60;;;;;;;;;;1760353;80;26380;-30
2022/01/03 09:00:00;;;;;;;0.60;0.55;;;;;;;;;;1762825;79;26431;-34
2022/01/03 09:02:27;;;;;;;0.40;0.40;;;;;;;;;;1777280;79;26622;-30
2022/01/03 09:04:54;;;;;;;0.50;0.50;;;;;;;;;;1761860;79;26297;-31
2022/01/03 09:07:21;;;;;;;0.40;0.40;;;;;;;;;;1766973;79;26349;-31
2022/01/03 09:09:49;;;;;;;0.50;0.50;;;;;;;;;;1766282;79;26301;-30
2022/01/03 09:12:16;;;;;;;0.42;0.42;;;;;;;;;;1770122;79;26777;-30
2022/01/03 09:14:44;;;;;;;2.35;0.60;;;;;;;;;;1764661;79;26313;-30
2022/01/03 09:17:11;;;;;;;0.80;0.40;;;;;;;;;;1761379;79;26638;-31
2022/01/03 09:19:38;;;;;;;0.45;0.45;;;;;;;;;;1774857;79;26290;-28
2022/01/03 09:22:19;;;;;;;0.47;0.47;;;;;;;;;;1762595;79;26289;-29
2022/01/03 09:24:47;;;;;;;0.60;0.60;;;;;;;;;;1764130;79;26344;-29
2022/01/03 09:29:59;;;;;;;0.50;0.50;;;;;;;;;;1769850;79;26345;-34
2022/01/03 09:32:26;;;;;;;1.27;0.45;;;;;;;;;;1766058;79;26285;-29
2022/01/03 09:34:54;;;;;;;0.40;0.40;;;;;;;;;;1766652;79;26335;-30
2022/01/03 09:37:22;;;;;;;0.65;0.50;;;;;;;;;;1774235;79;26856;-31
2022/01/03 09:39:50;;;;;;;0.45;0.45;;;;;;;;;;1766484;79;26387;-29
2022/01/03 09:42:19;;;;;;;0.45;0.45;;;;;;;;;;1753087;79;26350;-32
2022/01/03 09:44:48;;;;;;;0.53;0.50;;;;;;;;;;1754351;80;26290;-33
2022/01/03 09:47:17;;;;;;;0.28;0.28;;;;;;;;;;1757232;79;26290;-34
2022/01/03 09:49:45;;;;;;;0.42;0.42;;;;;;;;;;1753269;80;26711;-40
2022/01/03 09:52:14;;;;;;;0.35;0.35;;;;;;;;;;1751344;80;26286;-40
2022/01/03 09:54:42;;;;;;;0.50;0.50;;;;;;;;;;1753058;80;26295;-32
2022/01/03 09:57:10;;;;;;;2.10;0.55;;;;;;;;;;1755933;80;26746;-30
2022/01/03 09:59:38;;;;;;;0.50;0.50;;;;;;;;;;1757026;80;26216;-31
2022/01/03 10:02:06;;;;;;;0.40;0.40;;;;;;;;;;1754590;80;26349;-32
2022/01/03 10:04:33;;;;;;;0.35;0.35;;;;;;;;;;1753255;80;26752;-29
2022/01/03 10:07:01;;;;;;;0.65;0.60;;;;;;;;;;1731424;79;28400;-33
2022/01/03 10:09:29;;;;;;;0.40;0.40;;;;;;;;;;1735432;80;39300;-30
2022/01/03 10:11:57;;;;;;;0.50;0.50;;;;;;;;;;1745887;79;28212;-33
2022/01/03 10:14:24;;;;;;;0.45;0.30;;;;;;;;;;1745941;80;26688;-28
2022/01/03 10:16:51;;;;;;;1.47;0.45;;;;;;;;;;1758403;80;26746;-31
2022/01/03 10:19:18;;;;;;;4.03;0.37;;;;;;;;;;1760249;80;26743;-31
2022/01/03 10:21:48;;;;;;;0.50;0.50;;;;;;;;;;1747852;80;26687;-30
2022/01/03 10:24:17;;;;;;;0.98;0.57;;;;;;;;;;1748518;80;26354;-32
2022/01/03 10:26:54;;;;;;;0.37;0.37;;;;;;;;;;1749030;80;26329;-30
2022/01/03 10:29:22;;;;;;;0.50;0.50;;;;;;;;;;1745693;80;26236;-33
2022/01/03 10:31:51;;;;;;;0.50;0.50;;;;;;;;;;1746816;80;26794;-33
2022/01/03 10:34:21;;;;;;;0.30;0.30;;;;;;;;;;1755184;80;26295;-34
2022/01/03 10:36:49;;;;;;;0.45;0.45;;;;;;;;;;1747252;80;26416;-32
2022/01/03 10:39:20;;;;;;;0.30;0.30;;;;;;;;;;1747805;80;26716;-33
2022/01/03 10:41:49;;;;;;;0.95;0.40;;;;;;;;;;1748156;80;26420;-35
2022/01/03 10:44:29;;;;;;;0.80;0.53;;;;;;;;;;1752423;80;26485;-33
2022/01/03 10:46:57;;;;;;;0.65;0.42;;;;;;;;;;1753004;80;27455;-33
2022/01/03 10:49:25;;;;;;;0.60;0.60;;;;;;;;;;1743135;80;26469;-32
2022/01/03 10:51:53;;;;;;;3.25;0.50;;;;;;;;;;1755268;80;26762;-38
2022/01/03 10:54:21;;;;;;;1.90;0.42;;;;;;;;;;1750218;80;26271;-31
2022/01/03 10:56:50;;;;;;;0.30;0.30;;;;;;;;;;1750753;80;26810;-33
2022/01/03 10:59:20;;;;;;;0.42;0.42;;;;;;;;;;1747244;79;26893;-33
2022/01/03 11:01:50;;;;;;;0.50;0.50;;;;;;;;;;1749219;80;26650;-32
2022/01/03 11:04:40;;;;;;;0.28;0.28;;;;;;;;;;1750344;80;26365;-36
2022/01/03 11:12:35;;;;;;;0.50;0.50;;;;;;;;;;1746712;80;26348;-34
2022/01/03 11:15:02;;;;;;;0.35;0.35;;;;;;;;;;1747144;80;26372;-34
2022/01/03 11:17:30;;;;;;;0.28;0.28;;;;;;;;;;1742695;80;26365;-32
2022/01/03 11:20:00;;;;;;;0.40;0.40;;;;;;;;;;1742450;80;26309;-31
2022/01/03 11:22:31;;;;;;;0.40;0.40;;;;;;;;;;1748169;80;26364;-32
2022/01/03 11:24:59;;;;;;;0.40;0.40;;;;;;;;;;1747212;80;26384;-34
2022/01/03 11:27:26;;;;;;;0.33;0.33;;;;;;;;;;1746294;81;26310;-34
2022/01/03 11:29:53;;;;;;;0.50;0.50;;;;;;;;;;1743730;80;26290;-34
2022/01/03 11:32:23;;;;;;;0.40;0.40;;;;;;;;;;1742945;80;26776;-33
2022/01/03 11:34:51;;;;;;;0.40;0.40;;;;;;;;;;1759657;80;26244;-31
2022/01/03 11:37:19;;;;;;;0.50;0.50;;;;;;;;;;1758455;80;26310;-32
2022/01/03 11:39:48;;;;;;;0.40;0.40;;;;;;;;;;1755559;80;26334;-32
2022/01/03 11:42:16;;;;;;;0.45;0.45;;;;;;;;;;1761242;80;26311;-32
2022/01/03 11:44:44;;;;;;;0.60;0.60;;;;;;;;;;1761750;79;27521;-31
2022/01/03 11:47:12;;;;;;;1.65;0.57;;;;;;;;;;1756581;79;26294;-35
2022/01/03 11:49:39;;;;;;;0.30;0.30;;;;;;;;;;1755477;79;26389;-31
2022/01/03 11:52:12;;;;;;;2.33;0.47;;;;;;;;;;1755564;79;26369;-33
2022/01/03 11:54:36;;;;;;;0.60;0.60;;;;;;;;;;1756160;79;26272;-31
2022/01/03 11:57:21;;;;;;;2.65;0.40;;;;;;;;;;1754250;79;26718;-32
2022/01/03 12:05:12;;;;;;;0.55;0.55;;;;;;;;;;1755530;79;26354;-31
2022/01/03 12:07:55;;;;;;;0.68;0.35;;;;;;;;;;1755912;79;26792;-31
2022/01/03 12:10:23;;;;;;;0.50;0.50;;;;;;;;;;1763997;79;26752;-29
2022/01/03 12:12:52;;;;;;;0.50;0.50;;;;;;;;;;1750379;79;26291;-33
2022/01/03 12:15:30;;;;;;;0.53;0.53;;;;;;;;;;1757587;79;26271;-33
2022/01/03 12:17:59;;;;;;;0.40;0.40;;;;;;;;;;1749560;81;26284;-32
2022/01/03 12:20:44;;;;;;;0.33;0.33;;;;;;;;;;1752703;80;26280;-32
2022/01/03 12:23:14;;;;;;;0.42;0.42;;;;;;;;;;1751934;80;26282;-32
2022/01/03 12:25:46;;;;;;;0.60;0.60;;;;;;;;;;1753086;81;26356;-30
2022/01/03 12:28:11;;;;;;;0.50;0.50;;;;;;;;;;1755835;80;26385;-39
2022/01/03 12:30:39;;;;;;;0.50;0.50;;;;;;;;;;1749324;80;25810;-33
2022/01/03 12:33:08;;;;;;;0.95;0.60;;;;;;;;;;1757411;79;26865;-34
2022/01/03 12:35:37;;;;;;;0.80;0.60;;;;;;;;;;1754571;80;26735;-30
2022/01/03 12:38:06;;;;;;;0.65;0.60;;;;;;;;;;1747980;80;26771;-31
2022/01/03 12:40:38;;;;;;;2.30;0.50;;;;;;;;;;1759389;80;26834;-29
2022/01/03 12:43:06;;;;;;;0.90;0.50;;;;;;;;;;1759538;79;26847;-29
2022/01/03 12:45:35;;;;;;;0.70;0.70;;;;;;;;;;1765747;79;26323;-33
2022/01/03 12:48:18;;;;;;;0.60;0.60;;;;;;;;;;1774149;79;26737;-32
2022/01/03 12:50:46;;;;;;;0.42;0.42;;;;;;;;;;1763046;79;26368;-30
2022/01/03 12:53:30;;;;;;;0.75;0.75;;;;;;;;;;1758567;79;26375;-30
2022/01/03 12:56:05;;;;;;;0.60;0.60;;;;;;;;;;1765417;79;26292;-30
2022/01/03 12:58:34;;;;;;;2.80;0.50;;;;;;;;;;1758725;79;26753;-30
2022/01/03 13:01:04;;;;;;;0.98;0.72;;;;;;;;;;1771195;79;26357;-29
2022/01/03 13:03:42;;;;;;;8.20;0.80;;;;;;;;;;1768468;79;26289;-33
2022/01/03 13:06:12;;;;;;;0.62;0.62;;;;;;;;;;1748714;79;28439;-33
2022/01/03 13:08:50;;;;;;;0.60;0.60;;;;;;;;;;1776591;79;26830;-31
2022/01/03 13:11:22;;;;;;;0.70;0.70;;;;;;;;;;1785116;79;26341;-31
2022/01/03 13:13:50;;;;;;;0.72;0.72;;;;;;;;;;1765413;79;26324;-33
2022/01/03 13:16:27;;;;;;;0.57;0.57;;;;;;;;;;1758268;79;26309;-32
2022/01/03 13:18:56;;;;;;;0.78;0.78;;;;;;;;;;1787741;79;26667;-31
2022/01/03 13:21:25;;;;;;;1.87;0.65;;;;;;;;;;1782117;79;26305;-34
2022/01/03 13:23:53;;;;;;;0.60;0.60;;;;;;;;;;1764015;79;26367;-32
2022/01/03 13:26:21;;;;;;;0.53;0.53;;;;;;;;;;1763100;79;26508;-36
2022/01/03 13:28:49;;;;;;;2.40;0.57;;;;;;;;;;1763218;79;26347;-30
2022/01/03 13:31:17;;;;;;;0.60;0.60;;;;;;;;;;1767515;79;26283;-30
2022/01/03 13:33:44;;;;;;;0.53;0.53;;;;;;;;;;1779559;79;26239;-31
2022/01/03 13:36:18;;;;;;;0.70;0.60;;;;;;;;;;1758288;79;26273;-30
2022/01/03 13:38:43;;;;;;;0.42;0.42;;;;;;;;;;1775180;79;26346;-33
2022/01/03 13:41:12;;;;;;;0.53;0.50;;;;;;;;;;1770172;79;26337;-33
2022/01/03 13:43:43;;;;;;;0.42;0.42;;;;;;;;;;1753580;79;26278;-29
2022/01/03 13:51:23;;;;;;;0.65;0.65;;;;;;;;;;1750947;80;26381;-27
2022/01/03 13:53:52;;;;;;;0.50;0.50;;;;;;;;;;1753900;80;26239;-31
2022/01/03 13:56:19;;;;;;;0.68;0.68;;;;;;;;;;1742066;80;26282;-30
2022/01/03 13:58:47;;;;;;;0.50;0.50;;;;;;;;;;1742763;80;26396;-32
2022/01/03 14:01:14;;;;;;;0.50;0.50;;;;;;;;;;1757372;80;26282;-37
2022/01/03 14:03:41;;;;;;;0.42;0.42;;;;;;;;;;1743879;80;26601;-28
2022/01/03 14:06:16;;;;;;;1.00;0.60;;;;;;;;;;1749409;80;28377;-30
2022/01/03 14:08:45;;;;;;;0.85;0.60;;;;;;;;;;1739879;80;28279;-31
2022/01/03 14:11:14;;;;;;;0.82;0.60;;;;;;;;;;1745077;80;29563;-31
2022/01/03 14:13:41;;;;;;;1.60;0.57;;;;;;;;;;1754970;80;26430;-30
2022/01/03 14:16:10;;;;;;;2.05;0.50;;;;;;;;;;1749837;80;26290;-33
2022/01/03 14:18:45;;;;;;;0.60;0.60;;;;;;;;;;1749954;81;26619;-33
2022/01/03 14:21:19;;;;;;;0.53;0.53;;;;;;;;;;1754696;81;26263;-32
2022/01/03 14:23:54;;;;;;;0.57;0.45;;;;;;;;;;1749086;79;38364;-28
2022/01/03 14:26:23;;;;;;;2.02;0.75;;;;;;;;;;1751910;80;26369;-28
2022/01/03 14:28:52;;;;;;;0.60;0.60;;;;;;;;;;1757859;80;26823;-29
2022/01/03 14:31:19;;;;;;;0.65;0.65;;;;;;;;;;1759132;80;26364;-30
2022/01/03 14:33:46;;;;;;;0.60;0.60;;;;;;;;;;1754058;80;26750;-30
2022/01/03 14:36:15;;;;;;;0.60;0.60;;;;;;;;;;1751958;81;26228;-32
2022/01/03 14:38:45;;;;;;;0.50;0.50;;;;;;;;;;1769029;80;26370;-30
2022/01/03 14:41:23;;;;;;;1.47;0.50;;;;;;;;;;1745732;80;26380;-31
2022/01/03 14:43:54;;;;;;;0.40;0.40;;;;;;;;;;1742508;80;26345;-33
2022/01/03 14:46:23;;;;;;;1.35;0.40;;;;;;;;;;1748469;80;26613;-30
2022/01/03 14:48:54;;;;;;;1.37;0.40;;;;;;;;;;1756045;80;26427;-30
2022/01/03 14:51:21;;;;;;;1.27;0.50;;;;;;;;;;1751214;79;26384;-31
2022/01/03 14:53:49;;;;;;;0.47;0.47;;;;;;;;;;1747948;80;26303;-32
2022/01/03 14:56:28;;;;;;;0.50;0.50;;;;;;;;;;1752570;80;26311;-34
2022/01/03 14:59:09;;;;;;;0.40;0.40;;;;;;;;;;1760190;80;27467;-32
2022/01/03 15:01:36;;;;;;;0.60;0.60;;;;;;;;;;1741324;79;28343;-28
2022/01/03 15:04:05;;;;;;;0.45;0.45;;;;;;;;;;1753830;80;26252;-35
2022/01/03 15:06:32;;;;;;;0.55;0.55;;;;;;;;;;1749023;80;26361;-33
2022/01/03 15:08:59;;;;;;;0.40;0.40;;;;;;;;;;1753230;80;26357;-31
2022/01/03 15:11:27;;;;;;;0.60;0.60;;;;;;;;;;1746110;80;26353;-29
2022/01/03 15:13:54;;;;;;;0.40;0.40;;;;;;;;;;1742427;80;26334;-35
2022/01/03 15:16:21;;;;;;;0.53;0.50;;;;;;;;;;1746433;80;26334;-32